ROMMA est une association bénévole à but non lucratif. Votre soutien est indispensable : ADHERER à ROMMA ou FAIRE un DON

Taninges - (74, Haute-Savoie)

Vallée du Giffre (635 m)   Longitude: 06° 35' 38" E   Latitude: 46° 06' 21" N Station romma n°98
 

Détail journalier du     <<     >>

Température Precipitation Humidité Pression Vent Dir Rafale Dir. rafale Ensol.
Heure (°C) (mm) (%) (hPa) (km/h) (km/h) (min)
01:00 10.9096102505N0
02:00 11.00.29710241E5NE0
03:00 10.709710241E3E0
04:00 10.409710241ENE5E0
05:00 10.309710241ESE5ESE0
06:00 10.109710241ESE5ESE0
07:00 10.109710241E5ESE0
08:00 10.309710241SE5ESE0
09:00 10.909810241E5ENE0
10:00 12.10.29410232E6SE10
11:00 14.408810232SSE10SO35
12:00 15.608510236SSO16SO15
13:00 15.908410229SO18OSO0
14:00 16.508310227O19SO0
15:00 17.10.28110217SO16OSO0
16:00 17.308110216OSO16OSO0
17:00 17.208110214SSO11SO0
18:00 16.808210214SO10OSO0
19:00 16.60.28410214OSO10SO0
20:00 16.308610211OSO5OSO0
21:00 15.9089102203SE0
22:00 15.6092102203SE0
23:00 15.3093102203SE0
minuit 15.1094102203SE0

Graphique du 21-08-2019

 

Serveur OMMA